createdAt,value
2022-11-22T00:01:30.987Z,98285.16
2022-11-22T00:04:34.088Z,98295.50
2022-11-22T00:07:37.952Z,98290.50
2022-11-22T00:10:39.758Z,98281.34
2022-11-22T00:13:41.445Z,98268.06
2022-11-22T00:16:43.104Z,98265.84
2022-11-22T00:19:46.087Z,98258.34
2022-11-22T00:22:47.766Z,98254.59
2022-11-22T00:25:49.444Z,98249.84
2022-11-22T00:28:51.223Z,98249.16
2022-11-22T00:31:53.067Z,98255.94
2022-11-22T00:34:56.064Z,98250.53
2022-11-22T00:37:57.816Z,98249.63
2022-11-22T00:40:59.474Z,98247.50
2022-11-22T00:44:01.269Z,98248.16
2022-11-22T00:47:03.004Z,98252.81
2022-11-22T00:50:06.753Z,98258.69
2022-11-22T00:53:08.643Z,98261.31
2022-11-22T00:56:10.346Z,98244.53
2022-11-22T00:59:11.977Z,98236.69
2022-11-22T01:02:13.546Z,98249.75
2022-11-22T01:05:18.019Z,98256.00
2022-11-22T01:08:19.727Z,98259.94
2022-11-22T01:11:21.972Z,98267.00
2022-11-22T01:14:23.582Z,98284.59
2022-11-22T01:17:25.232Z,98301.31
2022-11-22T01:20:28.199Z,98295.25
2022-11-22T01:23:30.751Z,98304.59
2022-11-22T01:26:33.164Z,98300.72
2022-11-22T01:29:34.828Z,98305.94
2022-11-22T01:32:36.437Z,98309.47
2022-11-22T01:35:39.543Z,98316.28
2022-11-22T01:38:41.258Z,98315.13
2022-11-22T01:41:42.847Z,98314.25
2022-11-22T01:44:44.564Z,98324.00
2022-11-22T01:47:46.402Z,98315.63
2022-11-22T01:50:55.940Z,98321.94
2022-11-22T01:54:02.588Z,98324.81
2022-11-22T01:57:08.110Z,98323.22
2022-11-22T02:00:12.877Z,98319.59
2022-11-22T02:03:22.177Z,98320.84
2022-11-22T02:06:31.295Z,98328.56
2022-11-22T02:09:33.426Z,98323.66
2022-11-22T02:12:36.275Z,98332.84
2022-11-22T02:15:37.874Z,98337.28
2022-11-22T02:18:40.079Z,98347.94
2022-11-22T02:21:46.572Z,98352.28
2022-11-22T02:24:54.763Z,98344.34
2022-11-22T02:27:57.961Z,98347.84
2022-11-22T02:30:59.646Z,98346.38
2022-11-22T02:34:01.825Z,98343.66
2022-11-22T02:37:03.669Z,98351.59
2022-11-22T02:40:08.919Z,98351.25
2022-11-22T02:43:15.423Z,98350.47
2022-11-22T02:46:20.623Z,98356.47
2022-11-22T02:49:24.528Z,98364.41
2022-11-22T02:52:26.171Z,98373.72
2022-11-22T02:55:27.892Z,98367.47
2022-11-22T02:58:30.794Z,98369.50
2022-11-22T03:01:32.596Z,98369.63
2022-11-22T03:04:34.219Z,98363.63
2022-11-22T03:07:35.919Z,98362.63
2022-11-22T03:10:37.631Z,98360.13
2022-11-22T03:13:40.805Z,98360.00
2022-11-22T03:16:42.755Z,98368.06
2022-11-22T03:19:44.377Z,98369.78
2022-11-22T03:22:46.115Z,98376.78
2022-11-22T03:25:47.829Z,98378.41
2022-11-22T03:28:50.797Z,98392.47
2022-11-22T03:31:52.454Z,98389.44
2022-11-22T03:34:54.135Z,98391.47
2022-11-22T03:37:56.871Z,98380.88
2022-11-22T03:40:58.544Z,98388.97
2022-11-22T03:44:01.520Z,98389.84
2022-11-22T03:47:03.159Z,98386.91
2022-11-22T03:50:05.924Z,98393.03
2022-11-22T03:53:07.824Z,98398.84
2022-11-22T03:56:09.894Z,98396.22
2022-11-22T03:59:13.297Z,98398.94
2022-11-22T04:02:15.032Z,98402.34
2022-11-22T04:05:16.703Z,98400.84
2022-11-22T04:08:18.569Z,98401.66
2022-11-22T04:11:20.158Z,98403.47
2022-11-22T04:14:41.961Z,98405.75
2022-11-22T04:17:45.550Z,98406.19
2022-11-22T04:21:06.011Z,98417.28
2022-11-22T04:24:28.070Z,98408.31
2022-11-22T04:27:29.684Z,98417.19
2022-11-22T04:30:51.383Z,98416.03
2022-11-22T04:33:53.053Z,98426.69
2022-11-22T04:36:54.665Z,98420.25
2022-11-22T04:39:56.327Z,98425.59
2022-11-22T04:43:16.499Z,98435.13
2022-11-22T04:46:19.438Z,98432.75
2022-11-22T04:49:21.152Z,98426.31
2022-11-22T04:52:41.543Z,98425.19
2022-11-22T04:55:45.017Z,98436.41
2022-11-22T04:58:46.572Z,98429.59
2022-11-22T05:01:49.543Z,98434.69
2022-11-22T05:04:51.073Z,98433.78
2022-11-22T05:07:52.804Z,98426.03
2022-11-22T05:10:57.874Z,98432.75
2022-11-22T05:13:59.448Z,98425.47
2022-11-22T05:17:02.412Z,98423.13
2022-11-22T05:20:04.744Z,98433.47
2022-11-22T05:23:25.155Z,98435.63
2022-11-22T05:26:28.382Z,98435.47
2022-11-22T05:29:30.208Z,98440.88
2022-11-22T05:32:33.954Z,98440.53
2022-11-22T05:35:35.728Z,98452.31
2022-11-22T05:38:38.273Z,98449.75
2022-11-22T05:41:55.639Z,98464.50
2022-11-22T05:44:57.149Z,98460.84
2022-11-22T05:48:00.383Z,98471.28
2022-11-22T05:51:04.590Z,98473.53
2022-11-22T05:54:06.230Z,98485.38
2022-11-22T05:57:07.896Z,98487.66
2022-11-22T06:00:10.506Z,98485.28
2022-11-22T06:03:14.827Z,98497.25
2022-11-22T06:06:16.686Z,98498.97
2022-11-22T06:09:18.499Z,98498.97
2022-11-22T06:12:20.159Z,98507.19
2022-11-22T06:15:22.072Z,98504.56
2022-11-22T06:18:25.047Z,98509.09
2022-11-22T06:21:26.836Z,98504.25
2022-11-22T06:24:28.468Z,98503.72
2022-11-22T06:27:30.121Z,98515.16
2022-11-22T06:30:31.788Z,98519.72
2022-11-22T06:33:35.217Z,98529.38
2022-11-22T06:36:37.951Z,98526.88
2022-11-22T06:39:39.597Z,98535.03
2022-11-22T06:42:41.282Z,98534.84
2022-11-22T06:45:42.918Z,98538.38
2022-11-22T06:48:46.390Z,98547.31
2022-11-22T06:51:48.093Z,98550.84
2022-11-22T06:54:49.803Z,98557.97
2022-11-22T06:57:54.331Z,98561.13
2022-11-22T07:01:00.251Z,98556.22
2022-11-22T07:04:03.698Z,98567.53
2022-11-22T07:07:05.436Z,98565.81
2022-11-22T07:10:07.778Z,98562.41
2022-11-22T07:13:09.531Z,98568.66
2022-11-22T07:16:13.151Z,98569.88
2022-11-22T07:19:16.247Z,98567.91
2022-11-22T07:22:17.902Z,98573.66
2022-11-22T07:25:19.608Z,98576.13
2022-11-22T07:28:21.366Z,98580.41
2022-11-22T07:31:23.210Z,98581.47
2022-11-22T07:34:26.186Z,98588.91
2022-11-22T07:37:27.837Z,98583.84
2022-11-22T07:40:29.668Z,98597.91
2022-11-22T07:43:31.723Z,98605.75
2022-11-22T07:46:33.430Z,98611.75
2022-11-22T07:49:36.469Z,98614.88
2022-11-22T07:52:38.363Z,98614.50
2022-11-22T07:55:40.025Z,98623.78
2022-11-22T07:58:41.745Z,98629.91
2022-11-22T08:01:43.974Z,98625.19
2022-11-22T08:04:47.005Z,98627.13
2022-11-22T08:07:49.888Z,98637.59
2022-11-22T08:10:51.651Z,98640.19
2022-11-22T08:13:53.251Z,98643.69
2022-11-22T08:16:55.135Z,98654.66
2022-11-22T08:19:58.138Z,98667.94
2022-11-22T08:22:59.881Z,98660.25
2022-11-22T08:26:01.963Z,98660.25
2022-11-22T08:29:04.710Z,98655.25
2022-11-22T08:32:06.586Z,98658.38
2022-11-22T08:35:09.783Z,98666.88
2022-11-22T08:38:11.389Z,98659.41
2022-11-22T08:41:13.455Z,98665.13
2022-11-22T08:44:15.088Z,98650.91
2022-11-22T08:47:16.931Z,98652.06
2022-11-22T08:50:20.054Z,98646.84
2022-11-22T08:53:21.816Z,98650.97
2022-11-22T08:56:23.409Z,98655.66
2022-11-22T08:59:25.132Z,98660.56
2022-11-22T09:02:26.851Z,98663.91
2022-11-22T09:05:30.709Z,98659.59
2022-11-22T09:08:36.060Z,98660.75
2022-11-22T09:11:39.535Z,98653.41
2022-11-22T09:14:41.286Z,98648.66
2022-11-22T09:17:43.804Z,98654.00
2022-11-22T09:20:46.909Z,98660.16
2022-11-22T09:23:50.000Z,98659.22
2022-11-22T09:26:51.640Z,98650.38
2022-11-22T09:29:53.388Z,98660.03
2022-11-22T09:32:55.061Z,98669.69
2022-11-22T09:36:02.293Z,98660.94
2022-11-22T09:39:04.077Z,98658.94
2022-11-22T09:42:20.481Z,98651.56
2022-11-22T09:45:44.074Z,98646.59
2022-11-22T09:49:07.745Z,98652.81
2022-11-22T09:52:17.276Z,98643.44
2022-11-22T09:55:24.958Z,98647.44
2022-11-22T09:58:30.907Z,98645.78
2022-11-22T10:01:39.345Z,98649.25
2022-11-22T10:04:45.327Z,98646.75
2022-11-22T10:07:54.751Z,98639.41
2022-11-22T10:10:58.799Z,98631.63
2022-11-22T10:14:04.736Z,98634.13
2022-11-22T10:17:20.576Z,98631.63
2022-11-22T10:20:24.056Z,98646.25
2022-11-22T10:23:27.599Z,98646.16
2022-11-22T10:26:35.099Z,98647.09
2022-11-22T10:29:42.571Z,98650.25
2022-11-22T10:32:55.791Z,98648.47
2022-11-22T10:36:20.866Z,98650.06
2022-11-22T10:39:45.750Z,98653.25
2022-11-22T10:43:11.933Z,98653.25
2022-11-22T10:46:22.005Z,98653.97
2022-11-22T10:49:38.128Z,98645.84
2022-11-22T10:52:49.091Z,98650.31
2022-11-22T10:55:59.368Z,98650.31
2022-11-22T10:59:29.399Z,98643.25
2022-11-22T11:02:58.478Z,98644.16
2022-11-22T11:06:22.572Z,98641.78
2022-11-22T11:13:01.766Z,98639.88
2022-11-22T11:16:08.609Z,98641.28
2022-11-22T11:19:18.081Z,98641.38
2022-11-22T11:22:50.341Z,98630.00
2022-11-22T11:25:46.817Z,98638.53
2022-11-22T11:28:50.339Z,98636.75
2022-11-22T11:32:06.181Z,98627.06
2022-11-22T11:35:08.773Z,98634.91
2022-11-22T11:38:26.675Z,98631.50
2022-11-22T11:41:30.262Z,98631.72
2022-11-22T11:44:36.274Z,98628.50
2022-11-22T11:47:37.946Z,98628.44
2022-11-22T11:50:39.760Z,98630.69
2022-11-22T11:53:50.432Z,98625.31
2022-11-22T11:56:55.515Z,98620.91
2022-11-22T12:00:00.827Z,98623.28
2022-11-22T12:03:06.820Z,98618.03
2022-11-22T12:06:13.040Z,98622.03
2022-11-22T12:09:29.154Z,98620.09
2022-11-22T12:12:40.454Z,98617.16
2022-11-22T12:15:54.444Z,98610.41
2022-11-22T12:19:04.759Z,98606.19
2022-11-22T12:22:29.448Z,98608.59
2022-11-22T12:25:40.307Z,98605.41
2022-11-22T12:28:43.269Z,98588.53
2022-11-22T12:31:53.260Z,98583.19
2022-11-22T12:34:58.511Z,98576.78
2022-11-22T12:38:09.156Z,98577.41
2022-11-22T12:41:13.707Z,98565.84
2022-11-22T12:44:18.276Z,98566.16
2022-11-22T12:47:24.403Z,98578.16
2022-11-22T12:50:30.487Z,98578.84
2022-11-22T12:53:35.968Z,98569.72
2022-11-22T12:56:49.042Z,98572.53
2022-11-22T12:59:58.465Z,98570.13
2022-11-22T13:03:05.444Z,98572.53
2022-11-22T13:06:10.685Z,98573.09
2022-11-22T13:09:18.743Z,98574.94
2022-11-22T13:12:26.800Z,98579.03
2022-11-22T13:15:31.934Z,98571.97
2022-11-22T13:18:39.651Z,98560.13
2022-11-22T13:21:52.215Z,98562.16
2022-11-22T13:25:09.064Z,98565.75
2022-11-22T13:28:14.173Z,98567.56
2022-11-22T13:31:19.091Z,98561.09
2022-11-22T13:34:25.493Z,98560.97
2022-11-22T13:37:28.712Z,98564.50
2022-11-22T13:40:34.886Z,98559.06
2022-11-22T13:43:52.221Z,98559.41
2022-11-22T13:46:57.080Z,98566.56
2022-11-22T13:50:00.153Z,98571.09
2022-11-22T13:53:21.287Z,98572.16
2022-11-22T13:56:48.296Z,98582.53
2022-11-22T14:00:39.834Z,98575.56
2022-11-22T14:03:42.977Z,98566.59
2022-11-22T14:06:49.177Z,98573.41
2022-11-22T14:09:58.044Z,98576.63
2022-11-22T14:13:30.268Z,98571.38
2022-11-22T14:16:47.499Z,98570.38
2022-11-22T14:20:01.208Z,98571.38
2022-11-22T14:23:15.552Z,98575.63
2022-11-22T14:26:25.931Z,98576.63
2022-11-22T14:30:03.565Z,98578.22
2022-11-22T14:33:13.542Z,98574.25
2022-11-22T14:36:19.170Z,98581.53
2022-11-22T14:39:58.174Z,98589.03
2022-11-22T14:43:05.413Z,98583.00
2022-11-22T14:46:37.293Z,98597.03
2022-11-22T14:49:42.316Z,98597.81
2022-11-22T14:52:46.267Z,98604.53
2022-11-22T14:55:49.738Z,98610.91
2022-11-22T14:59:01.521Z,98603.06
2022-11-22T15:02:38.818Z,98604.50
2022-11-22T15:09:13.291Z,98606.69
2022-11-22T15:09:53.276Z,98609.97
2022-11-22T15:13:29.260Z,98608.94
2022-11-22T15:57:52.619Z,98668.19
2022-11-22T16:01:01.472Z,98669.78
2022-11-22T16:04:23.390Z,98672.03
2022-11-22T16:07:31.358Z,98678.97
2022-11-22T16:10:37.583Z,98681.59
2022-11-22T16:13:40.003Z,98693.75
2022-11-22T16:16:41.710Z,98700.56
2022-11-22T16:19:43.343Z,98695.22
2022-11-22T16:23:02.348Z,98706.34
2022-11-22T16:26:20.319Z,98698.19
2022-11-22T16:29:26.295Z,98703.31
2022-11-22T16:32:28.458Z,98697.84
2022-11-22T16:35:30.411Z,98704.47
2022-11-22T16:38:34.491Z,98709.44
2022-11-22T16:41:36.306Z,98706.47
2022-11-22T16:44:38.971Z,98706.47
2022-11-22T16:47:40.766Z,98706.34
2022-11-22T16:50:43.027Z,98711.69
2022-11-22T16:53:47.975Z,98707.13
2022-11-22T16:56:49.848Z,98719.47
2022-11-22T16:59:51.639Z,98717.38
2022-11-22T17:02:53.276Z,98732.72
2022-11-22T17:05:55.355Z,98736.75
2022-11-22T17:08:59.890Z,98740.16
2022-11-22T17:12:02.154Z,98738.19
2022-11-22T17:15:04.289Z,98734.81
2022-11-22T17:18:05.930Z,98737.31
2022-11-22T17:21:16.219Z,98738.91
2022-11-22T17:24:21.206Z,98744.91
2022-11-22T17:27:22.745Z,98738.69
2022-11-22T17:30:24.450Z,98744.81
2022-11-22T17:33:26.179Z,98743.38
2022-11-22T17:36:30.125Z,98743.91
2022-11-22T17:39:33.476Z,98755.41
2022-11-22T17:42:40.742Z,98751.38
2022-11-22T17:45:43.842Z,98754.00
2022-11-22T17:48:51.025Z,98758.41
2022-11-22T17:51:52.768Z,98755.28
2022-11-22T17:54:58.309Z,98757.09
2022-11-22T17:58:02.374Z,98769.63
2022-11-22T18:01:05.491Z,98763.50
2022-11-22T18:04:07.082Z,98769.75
2022-11-22T18:07:08.806Z,98762.59
2022-11-22T18:10:12.302Z,98762.06
2022-11-22T18:13:21.311Z,98765.69
2022-11-22T18:16:28.304Z,98762.72
2022-11-22T18:19:30.594Z,98768.31
2022-11-22T18:22:32.501Z,98770.69
2022-11-22T18:25:37.088Z,98774.84
2022-11-22T18:28:39.512Z,98766.75
2022-11-22T18:31:51.802Z,98769.91
2022-11-22T18:34:54.125Z,98787.53
2022-11-22T18:37:55.787Z,98792.41
2022-11-22T18:41:00.378Z,98784.69
2022-11-22T18:44:06.936Z,98777.63
2022-11-22T18:47:10.307Z,98786.09
2022-11-22T18:50:12.919Z,98781.91
2022-11-22T18:53:14.559Z,98780.09
2022-11-22T18:56:17.557Z,98785.88
2022-11-22T18:59:19.260Z,98789.53
2022-11-22T19:02:25.669Z,98790.19
2022-11-22T19:05:27.410Z,98789.25
2022-11-22T19:08:29.026Z,98794.22
2022-11-22T19:11:32.197Z,98795.56
2022-11-22T19:14:34.637Z,98799.84
2022-11-22T19:17:38.186Z,98799.59
2022-11-22T19:20:54.767Z,98800.75
2022-11-22T19:23:57.312Z,98796.19
2022-11-22T19:27:00.386Z,98796.88
2022-11-22T19:30:02.324Z,98798.00
2022-11-22T19:33:04.170Z,98793.44
2022-11-22T19:36:07.853Z,98795.81
2022-11-22T19:39:13.183Z,98801.69
2022-11-22T19:42:17.696Z,98807.03
2022-11-22T19:45:19.427Z,98805.72
2022-11-22T19:48:21.165Z,98798.53
2022-11-22T19:51:23.908Z,98806.78
2022-11-22T19:54:25.801Z,98811.06
2022-11-22T19:57:28.818Z,98811.31
2022-11-22T20:00:30.856Z,98812.25
2022-11-22T20:03:33.956Z,98817.47
2022-11-22T20:06:36.342Z,98821.13
2022-11-22T20:09:38.420Z,98828.03
2022-11-22T20:12:43.116Z,98821.38
2022-11-22T20:15:44.732Z,98824.25
2022-11-22T20:18:46.788Z,98830.91
2022-11-22T20:21:49.464Z,98839.63
2022-11-22T20:24:51.288Z,98829.59
2022-11-22T20:27:54.455Z,98835.72
2022-11-22T20:31:04.799Z,98836.25
2022-11-22T20:34:06.730Z,98846.97
2022-11-22T20:37:08.459Z,98840.56
2022-11-22T20:40:10.519Z,98839.91
2022-11-22T20:43:13.449Z,98842.66
2022-11-22T20:46:17.199Z,98849.84
2022-11-22T20:49:18.918Z,98852.69
2022-11-22T20:52:20.601Z,98858.81
2022-11-22T20:55:22.253Z,98865.63
2022-11-22T20:58:26.309Z,98862.75
2022-11-22T21:01:31.131Z,98862.22
2022-11-22T21:04:33.219Z,98865.75
2022-11-22T21:07:35.127Z,98872.66
2022-11-22T21:10:36.902Z,98876.84
2022-11-22T21:13:40.808Z,98877.50
2022-11-22T21:16:43.216Z,98882.19
2022-11-22T21:19:44.971Z,98872.94
2022-11-22T21:22:46.649Z,98878.16
2022-11-22T21:25:50.365Z,98878.94
2022-11-22T21:28:53.824Z,98885.97
2022-11-22T21:31:55.462Z,98890.53
2022-11-22T21:34:57.124Z,98891.06
2022-11-22T21:37:58.810Z,98885.06
2022-11-22T21:41:24.390Z,98888.84
2022-11-22T21:44:25.017Z,98886.09
2022-11-22T21:47:26.655Z,98885.97
2022-11-22T21:50:28.295Z,98899.16
2022-11-22T21:53:30.526Z,98889.91
2022-11-22T21:56:32.458Z,98883.88
2022-11-22T21:59:35.764Z,98892.75
2022-11-22T22:02:37.497Z,98897.72
2022-11-22T22:05:39.503Z,98899.28
2022-11-22T22:08:41.260Z,98905.94
2022-11-22T22:11:47.468Z,98906.47
2022-11-22T22:14:50.456Z,98904.09
2022-11-22T22:17:52.269Z,98902.94
2022-11-22T22:21:01.967Z,98905.03
2022-11-22T22:24:03.999Z,98907.22
2022-11-22T22:27:05.625Z,98900.06
2022-11-22T22:30:09.876Z,98911.28
2022-11-22T22:33:11.666Z,98907.63
2022-11-22T22:36:14.076Z,98906.09
2022-11-22T22:39:15.835Z,98906.22
2022-11-22T22:42:17.480Z,98906.09
2022-11-22T22:45:20.471Z,98913.25
2022-11-22T22:48:22.090Z,98900.06
2022-11-22T22:51:31.825Z,98907.63
2022-11-22T22:54:35.795Z,98919.28
2022-11-22T22:57:37.477Z,98921.34
2022-11-22T23:00:40.479Z,98918.09
2022-11-22T23:03:42.213Z,98923.97
2022-11-22T23:06:43.807Z,98915.59
2022-11-22T23:09:45.593Z,98915.75
2022-11-22T23:12:47.159Z,98916.13
2022-11-22T23:15:58.442Z,98920.06
2022-11-22T23:19:00.427Z,98926.97
2022-11-22T23:22:02.106Z,98919.81
2022-11-22T23:25:04.568Z,98920.97
2022-11-22T23:28:06.199Z,98919.41
2022-11-22T23:31:11.183Z,98928.16
2022-11-22T23:34:12.949Z,98928.03
2022-11-22T23:37:14.662Z,98926.31
2022-11-22T23:40:16.539Z,98921.22
2022-11-22T23:43:18.199Z,98928.16
2022-11-22T23:46:22.075Z,98933.75
2022-11-22T23:49:23.790Z,98932.97
2022-11-22T23:52:25.389Z,98922.94
2022-11-22T23:55:27.008Z,98923.97
2022-11-22T23:58:29.660Z,98920.31
